Terminal Aerodrome Forecast
Issued by NWS Upton, NY

Home | Current Version | Previous Version | Text Only | Print | Product List | Glossary On
Versions: 1 2 3 4 5 6 7 8 9 10 11 12 13 14 15 16 17 18 19 20 21 22 23 24 25 26 27
000
FTUS41 KOKX 191434 AAA
TAFISP
TAF AMD
KISP 191434Z 1915/2012 07008KT P6SM BKN250
     FM191700 13012KT P6SM BKN250
     FM200100 10008KT P6SM BKN150
     FM200800 11016G22KT P6SM FEW025 BKN120
     FM201100 10020G27KT 6SM -RA SCT025 OVC100=

USA.gov is the U.S. government's official web portal to all federal, state and local government web resources and services.